Messwerte Brazzaville

Temperatur

Temperatur
°C
1594364400 8.00 8.00
1594368000 9.00 9.00 25
1594371600 10.00 10.00 26
1594375200 11.00 11.00 26
1594378800 12.00 12.00 27
1594382400 13.00 13.00 27
1594386000 14.00 14.00
1594389600 15.00 15.00 27
1594393200 16.00 16.00 27
1594396800 17.00 17.00 27
1594400400 18.00 18.00 26
1594404000 19.00 19.00 26
1594407600 20.00 20.00 25
1594411200 21.00 21.00 25
1594414800 22.00 22.00 24
1594418400 23.00 23.00
1594422000 0.00 0.00
1594425600 1.00 1.00 23
1594429200 2.00 2.00
1594432800 3.00 3.00
1594436400 4.00 4.00
1594440000 5.00 5.00
1594443600 6.00 6.00
1594447200 7.00 7.00 23

Aktuellste Messwerte

Wettercharakter
Wetter: wechselnd bewölkt
Temperatur
23 °C
Feuchtigkeit
90 %
Wind
5 km/hWindrichtung: Südwest
Luftdruck
1016 hPa
Messzeit: 11. Juli 2020, 8.00Datenquelle: METAR

Weitere Messstationen in der Nähe

Messstation Temperatur Entfernung
Franceville 22 °C 351 km
Cabinda - 369 km
Pointe-Noire 22 °C 376 km

Wind

Windrichtung Böen Mittelwind
° km/h km/h
1594364400 8.00 7.00 - 8.00
1594368000 9.00 8.00 - 9.00 240° 15
1594371600 10.00 9.00 - 10.00 250° 10
1594375200 11.00 10.00 - 11.00 250° 10
1594378800 12.00 11.00 - 12.00 270° 10
1594382400 13.00 12.00 - 13.00 270° 10
1594386000 14.00 13.00 - 14.00
1594389600 15.00 14.00 - 15.00 260° 15
1594393200 16.00 15.00 - 16.00 270° 10
1594396800 17.00 16.00 - 17.00 250° 10
1594400400 18.00 17.00 - 18.00 240° 10
1594404000 19.00 18.00 - 19.00 230° 10
1594407600 20.00 19.00 - 20.00 230° 10
1594411200 21.00 20.00 - 21.00 260° 5
1594414800 22.00 21.00 - 22.00 280° 5
1594418400 23.00 22.00 - 23.00
1594422000 0.00 23.00 - 0.00
1594425600 1.00 0.00 - 1.00 230° 5
1594429200 2.00 1.00 - 2.00
1594432800 3.00 2.00 - 3.00
1594436400 4.00 3.00 - 4.00
1594440000 5.00 4.00 - 5.00
1594443600 6.00 5.00 - 6.00
1594447200 7.00 6.00 - 7.00 270° 5

Ihre Wetterstation

Fehlt Ihre Wetterstation auf unserem Portal?

Schreiben Sie an network@meteonews.ch